Time;durP1;ratioP1;P1;durP2;ratioP2;P2;SDS_P1;SDS_P2;PMS_P1;PMS_P2;Temp;Humidity;BMP_temperature;BMP_pressure;BME280_temperature;BME280_humidity;BME280_pressure;Samples;Min_cycle;Max_cycle;Signal;HPM_P1;HPM_P2
2022/03/22 00:00:11;;;;;;;;;;;12.00;86.50;;;;;;5050257;28;19997;-62
2022/03/22 00:02:37;;;;;;;;;;;11.90;86.50;;;;;;5051086;28;19967;-62
2022/03/22 00:05:03;;;;;;;;;;;11.90;85.50;;;;;;5050855;28;19913;-62
2022/03/22 00:07:30;;;;;;;;;;;11.90;85.50;;;;;;5051737;28;20424;-62
2022/03/22 00:09:55;;;;;;;;;;;11.80;86.50;;;;;;5045291;28;19938;-62
2022/03/22 00:12:21;;;;;;;;;;;11.80;86.90;;;;;;5050481;28;20028;-60
2022/03/22 00:14:46;;;;;;;;;;;11.70;86.40;;;;;;5050196;28;19912;-63
2022/03/22 00:17:12;;;;;;;;;;;11.80;85.80;;;;;;5050608;28;19923;-61
2022/03/22 00:19:37;;;;;;;;;;;11.80;86.80;;;;;;5051531;28;19967;-61
2022/03/22 00:22:04;;;;;;;;;;;11.70;85.60;;;;;;5050291;28;19927;-62
2022/03/22 00:24:29;;;;;;;;;;;11.70;86.70;;;;;;5050706;28;20439;-61
2022/03/22 00:26:55;;;;;;;;;;;11.70;86.80;;;;;;5050208;28;19913;-61
2022/03/22 00:29:21;;;;;;;;;;;11.70;85.90;;;;;;5063115;28;20149;-61
2022/03/22 00:31:46;;;;;;;;;;;11.70;85.30;;;;;;5051356;28;19954;-61
2022/03/22 00:34:14;;;;;;;;;;;11.60;86.10;;;;;;5050383;28;19909;-62
2022/03/22 00:36:40;;;;;;;;;;;11.60;87.70;;;;;;5050385;28;20012;-62
2022/03/22 00:39:06;;;;;;;;;;;11.60;87.20;;;;;;5050870;28;20079;-62
2022/03/22 00:41:32;;;;;;;;;;;11.50;87.10;;;;;;5050008;28;19929;-62
2022/03/22 00:43:57;;;;;;;;;;;11.50;87.30;;;;;;5050289;28;19917;-63
2022/03/22 00:46:23;;;;;;;;;;;11.50;87.30;;;;;;5050713;28;19997;-62
2022/03/22 00:48:49;;;;;;;;;;;11.50;87.50;;;;;;5050038;28;19912;-62
2022/03/22 00:51:14;;;;;;;;;;;11.50;87.20;;;;;;5050073;28;19927;-62
2022/03/22 00:53:41;;;;;;;;;;;11.40;87.40;;;;;;5050242;28;19982;-61
2022/03/22 00:56:07;;;;;;;;;;;11.40;88.40;;;;;;5049473;28;19935;-61
2022/03/22 00:58:32;;;;;;;;;;;11.40;88.30;;;;;;5050871;28;19909;-63
2022/03/22 01:00:58;;;;;;;;;;;11.40;87.70;;;;;;5050316;28;19932;-62
2022/03/22 01:03:23;;;;;;;;;;;11.30;88.60;;;;;;5050309;28;19920;-61
2022/03/22 01:05:52;;;;;;;;;;;11.30;87.00;;;;;;5049996;28;20423;-62
2022/03/22 01:08:18;;;;;;;;;;;11.30;87.40;;;;;;5050157;28;19916;-62
2022/03/22 01:10:51;;;;;;;;;;;11.30;86.60;;;;;;5050784;28;20370;-60
2022/03/22 01:13:24;;;;;;;;;;;11.30;86.90;;;;;;5049571;28;19912;-62
2022/03/22 01:15:50;;;;;;;;;;;11.20;88.00;;;;;;5049860;28;20020;-62
2022/03/22 01:18:15;;;;;;;;;;;11.20;87.70;;;;;;5049828;28;20011;-61
2022/03/22 01:20:46;;;;;;;;;;;11.20;87.30;;;;;;5049779;28;19943;-61
2022/03/22 01:23:12;;;;;;;;;;;11.10;87.80;;;;;;5049877;28;19921;-62
2022/03/22 01:25:38;;;;;;;;;;;11.10;88.80;;;;;;5050908;28;19913;-61
2022/03/22 01:28:05;;;;;;;;;;;11.00;89.00;;;;;;5049637;28;19913;-61
2022/03/22 01:30:31;;;;;;;;;;;11.00;87.30;;;;;;5049780;28;19913;-62
2022/03/22 01:32:56;;;;;;;;;;;11.00;88.30;;;;;;5049907;28;20370;-61
2022/03/22 01:35:23;;;;;;;;;;;11.00;88.00;;;;;;5050188;28;19913;-62
2022/03/22 01:37:49;;;;;;;;;;;11.00;88.20;;;;;;5049817;28;19909;-62
2022/03/22 01:40:16;;;;;;;;;;;10.90;88.20;;;;;;5051136;28;19913;-63
2022/03/22 01:42:42;;;;;;;;;;;10.90;87.90;;;;;;5053491;28;19924;-61
2022/03/22 01:45:09;;;;;;;;;;;10.80;87.70;;;;;;5053306;28;19913;-62
2022/03/22 01:47:36;;;;;;;;;;;10.80;87.40;;;;;;5053423;28;19955;-63
2022/03/22 01:50:02;;;;;;;;;;;10.70;87.30;;;;;;5053708;28;19917;-62
2022/03/22 01:52:27;;;;;;;;;;;10.70;87.80;;;;;;5054237;28;19913;-62
2022/03/22 01:54:55;;;;;;;;;;;10.70;87.90;;;;;;5052814;28;20282;-60
2022/03/22 01:57:22;;;;;;;;;;;10.70;88.40;;;;;;5053256;28;19928;-63
2022/03/22 01:59:48;;;;;;;;;;;10.60;88.40;;;;;;5053053;28;19920;-63
2022/03/22 02:07:44;;;;;;;;;;;10.60;88.80;;;;;;5054410;28;19996;-63
2022/03/22 02:10:11;;;;;;;;;;;10.50;87.70;;;;;;5052280;28;19959;-61
2022/03/22 02:12:36;;;;;;;;;;;10.50;88.50;;;;;;5053079;28;19951;-63
2022/03/22 02:15:03;;;;;;;;;;;10.50;88.10;;;;;;5051586;28;19960;-61
2022/03/22 02:17:28;;;;;;;;;;;10.50;87.40;;;;;;5052779;28;20375;-63
2022/03/22 02:19:54;;;;;;;;;;;10.50;89.40;;;;;;5052911;28;19913;-62
2022/03/22 02:22:22;;;;;;;;;;;10.40;88.50;;;;;;5052783;28;20612;-62
2022/03/22 02:24:47;;;;;;;;;;;10.50;87.90;;;;;;5052841;28;19975;-63
2022/03/22 02:27:13;;;;;;;;;;;10.50;87.80;;;;;;5052299;28;20393;-60
2022/03/22 02:29:38;;;;;;;;;;;10.50;87.90;;;;;;5052425;28;19917;-62
2022/03/22 02:32:04;;;;;;;;;;;10.50;88.60;;;;;;5052591;28;20350;-62
2022/03/22 02:34:30;;;;;;;;;;;10.50;89.00;;;;;;5053511;28;19909;-62
2022/03/22 02:36:59;;;;;;;;;;;10.40;88.50;;;;;;5052285;28;19959;-63
2022/03/22 02:39:25;;;;;;;;;;;10.50;88.50;;;;;;5052187;28;19940;-63
2022/03/22 02:41:51;;;;;;;;;;;10.40;90.00;;;;;;5052291;28;19921;-62
2022/03/22 02:44:18;;;;;;;;;;;10.40;88.70;;;;;;5052482;28;19913;-61
2022/03/22 02:46:43;;;;;;;;;;;10.40;89.40;;;;;;5053274;28;19916;-61
2022/03/22 02:49:09;;;;;;;;;;;10.40;88.90;;;;;;5052081;28;19908;-60
2022/03/22 02:51:34;;;;;;;;;;;10.30;89.60;;;;;;5051840;28;19917;-62
2022/03/22 02:54:00;;;;;;;;;;;10.30;88.40;;;;;;5052390;28;19909;-61
2022/03/22 02:56:25;;;;;;;;;;;10.30;88.80;;;;;;5051916;28;19944;-61
2022/03/22 02:58:51;;;;;;;;;;;10.20;90.00;;;;;;5052315;28;20182;-63
2022/03/22 03:01:16;;;;;;;;;;;10.20;89.80;;;;;;5052656;28;19913;-61
2022/03/22 03:03:42;;;;;;;;;;;10.30;90.10;;;;;;5051758;28;20007;-63
2022/03/22 03:06:07;;;;;;;;;;;10.30;89.30;;;;;;5052071;28;19913;-62
2022/03/22 03:08:33;;;;;;;;;;;10.20;88.60;;;;;;5051512;28;19919;-62
2022/03/22 03:10:58;;;;;;;;;;;10.30;89.00;;;;;;5051946;28;19909;-63
2022/03/22 03:13:24;;;;;;;;;;;10.30;89.50;;;;;;5052290;28;19913;-64
2022/03/22 03:15:52;;;;;;;;;;;10.20;88.70;;;;;;5052126;28;19913;-63
2022/03/22 03:18:18;;;;;;;;;;;10.20;89.10;;;;;;5051528;28;19943;-60
2022/03/22 03:20:44;;;;;;;;;;;10.20;88.60;;;;;;5051639;28;19924;-62
2022/03/22 03:23:09;;;;;;;;;;;10.10;88.90;;;;;;5051775;28;20294;-61
2022/03/22 03:25:35;;;;;;;;;;;10.10;89.70;;;;;;5052158;28;19909;-63
2022/03/22 03:28:01;;;;;;;;;;;10.10;89.10;;;;;;5051209;28;19999;-61
2022/03/22 03:30:27;;;;;;;;;;;10.10;89.60;;;;;;5051446;28;19996;-63
2022/03/22 03:32:52;;;;;;;;;;;10.00;89.10;;;;;;5051450;28;20324;-63
2022/03/22 03:35:18;;;;;;;;;;;10.00;89.00;;;;;;5051235;28;19913;-62
2022/03/22 03:37:44;;;;;;;;;;;10.00;89.50;;;;;;5051862;28;20301;-63
2022/03/22 03:40:10;;;;;;;;;;;10.00;89.70;;;;;;5051152;28;19969;-63
2022/03/22 03:42:42;;;;;;;;;;;9.90;89.50;;;;;;5050955;28;19971;-62
2022/03/22 03:47:55;;;;;;;;;;;9.90;89.30;;;;;;5051187;28;19967;-64
2022/03/22 03:50:21;;;;;;;;;;;9.80;89.20;;;;;;5049454;28;19925;-63
2022/03/22 03:52:47;;;;;;;;;;;9.80;89.50;;;;;;5051498;28;19916;-63
2022/03/22 03:55:12;;;;;;;;;;;9.80;90.00;;;;;;5051462;28;19948;-62
2022/03/22 03:57:38;;;;;;;;;;;9.80;89.70;;;;;;5050651;28;19928;-64
2022/03/22 04:00:04;;;;;;;;;;;9.80;89.80;;;;;;5051350;28;19913;-63
2022/03/22 04:02:30;;;;;;;;;;;9.80;89.70;;;;;;5050613;28;19925;-63
2022/03/22 04:04:55;;;;;;;;;;;9.80;90.00;;;;;;5050230;28;20008;-63
2022/03/22 04:07:25;;;;;;;;;;;9.80;90.00;;;;;;5051604;28;20007;-63
2022/03/22 04:09:51;;;;;;;;;;;9.80;90.10;;;;;;5050428;28;19917;-62
2022/03/22 04:12:17;;;;;;;;;;;9.80;89.70;;;;;;5050577;28;19999;-62
2022/03/22 04:14:42;;;;;;;;;;;9.80;90.00;;;;;;5051042;28;19921;-62
2022/03/22 04:17:08;;;;;;;;;;;9.80;89.60;;;;;;5050840;28;19936;-61
2022/03/22 04:19:35;;;;;;;;;;;9.70;88.90;;;;;;5050581;28;19909;-63
2022/03/22 04:22:02;;;;;;;;;;;9.70;89.70;;;;;;5050454;28;19921;-62
2022/03/22 04:24:28;;;;;;;;;;;9.70;89.00;;;;;;5050599;28;19920;-61
2022/03/22 04:26:54;;;;;;;;;;;9.70;90.10;;;;;;5050237;28;20515;-61
2022/03/22 04:34:48;;;;;;;;;;;9.70;89.30;;;;;;5046849;28;20788;-61
2022/03/22 04:37:14;;;;;;;;;;;9.70;89.70;;;;;;5050636;28;19909;-62
2022/03/22 04:39:40;;;;;;;;;;;9.60;89.90;;;;;;5050326;28;20290;-59
2022/03/22 04:42:06;;;;;;;;;;;9.60;90.00;;;;;;5050081;28;19932;-62
2022/03/22 04:44:32;;;;;;;;;;;9.60;90.10;;;;;;5049219;28;19917;-62
2022/03/22 04:46:58;;;;;;;;;;;9.60;90.30;;;;;;5049750;28;19913;-63
2022/03/22 04:49:24;;;;;;;;;;;9.60;90.30;;;;;;5050682;28;19905;-62
2022/03/22 04:57:18;;;;;;;;;;;9.50;90.30;;;;;;5050182;28;19928;-63
2022/03/22 04:59:43;;;;;;;;;;;9.50;90.10;;;;;;5050212;28;20305;-62
2022/03/22 05:02:09;;;;;;;;;;;9.40;90.10;;;;;;5050027;28;19928;-60
2022/03/22 05:04:35;;;;;;;;;;;9.50;90.50;;;;;;5050463;28;20377;-63
2022/03/22 05:07:01;;;;;;;;;;;9.50;90.20;;;;;;5049712;28;19912;-62
2022/03/22 05:09:28;;;;;;;;;;;9.50;90.20;;;;;;5049961;28;19920;-62
2022/03/22 05:11:54;;;;;;;;;;;9.40;90.60;;;;;;5050161;28;19912;-61
2022/03/22 05:14:19;;;;;;;;;;;9.40;90.40;;;;;;5050056;28;19917;-63
2022/03/22 05:16:45;;;;;;;;;;;9.30;90.50;;;;;;5054474;28;20381;-61
2022/03/22 05:19:13;;;;;;;;;;;9.30;90.70;;;;;;5053758;28;19913;-63
2022/03/22 05:21:38;;;;;;;;;;;9.30;90.50;;;;;;5053624;28;19920;-62
2022/03/22 05:24:04;;;;;;;;;;;9.30;90.80;;;;;;5054214;28;20380;-62
2022/03/22 05:26:29;;;;;;;;;;;9.30;90.70;;;;;;5053755;28;19919;-62
2022/03/22 05:28:55;;;;;;;;;;;9.20;90.50;;;;;;5052271;28;19909;-61
2022/03/22 05:31:21;;;;;;;;;;;9.20;90.70;;;;;;5054156;28;19909;-62
2022/03/22 05:33:47;;;;;;;;;;;9.20;90.70;;;;;;5053566;28;19920;-60
2022/03/22 05:36:12;;;;;;;;;;;9.10;90.80;;;;;;5051794;28;19921;-62
2022/03/22 05:38:38;;;;;;;;;;;9.10;90.70;;;;;;5053789;28;20384;-63
2022/03/22 05:41:03;;;;;;;;;;;9.10;91.10;;;;;;5053496;28;19920;-62
2022/03/22 05:43:29;;;;;;;;;;;9.10;91.30;;;;;;5054057;28;19913;-62
2022/03/22 05:45:55;;;;;;;;;;;9.10;91.00;;;;;;5053230;28;19913;-62
2022/03/22 05:48:21;;;;;;;;;;;9.00;91.00;;;;;;5053668;28;19913;-62
2022/03/22 05:50:46;;;;;;;;;;;9.00;91.00;;;;;;5053329;28;19913;-61
2022/03/22 05:53:12;;;;;;;;;;;9.00;90.90;;;;;;5053620;28;19913;-61
2022/03/22 05:55:38;;;;;;;;;;;9.00;90.90;;;;;;5053876;28;19928;-63
2022/03/22 05:58:04;;;;;;;;;;;8.90;91.20;;;;;;5052997;28;20003;-63
2022/03/22 06:00:30;;;;;;;;;;;8.90;90.90;;;;;;5053502;28;19913;-63
2022/03/22 06:02:56;;;;;;;;;;;8.90;91.00;;;;;;5052717;28;19940;-64
2022/03/22 06:05:21;;;;;;;;;;;8.90;91.10;;;;;;5053028;28;19967;-61
2022/03/22 06:07:47;;;;;;;;;;;8.90;91.30;;;;;;5053729;28;19959;-61
2022/03/22 06:10:13;;;;;;;;;;;8.90;92.20;;;;;;5053028;28;19955;-61
2022/03/22 06:12:40;;;;;;;;;;;8.90;91.90;;;;;;5053331;28;19913;-61
2022/03/22 06:15:15;;;;;;;;;;;8.80;94.70;;;;;;5052563;28;20431;-61
2022/03/22 06:17:47;;;;;;;;;;;8.70;92.70;;;;;;5052788;28;20377;-59
2022/03/22 06:20:14;;;;;;;;;;;8.80;91.70;;;;;;5052563;28;19913;-61
2022/03/22 06:22:39;;;;;;;;;;;8.80;91.70;;;;;;5053748;28;20401;-61
2022/03/22 06:25:05;;;;;;;;;;;8.80;91.80;;;;;;5052585;28;19913;-62
2022/03/22 06:27:33;;;;;;;;;;;8.90;91.50;;;;;;5052411;28;20293;-61
2022/03/22 06:29:58;;;;;;;;;;;8.80;91.50;;;;;;5052335;28;19928;-61
2022/03/22 06:32:24;;;;;;;;;;;8.90;91.80;;;;;;5052441;28;19913;-62
2022/03/22 06:34:51;;;;;;;;;;;9.00;91.80;;;;;;5053024;28;20289;-62
2022/03/22 06:37:16;;;;;;;;;;;9.00;91.60;;;;;;5053261;28;19944;-63
2022/03/22 06:39:41;;;;;;;;;;;9.00;91.50;;;;;;5052343;28;19962;-62
2022/03/22 06:42:07;;;;;;;;;;;9.00;91.50;;;;;;5052164;28;19921;-63
2022/03/22 06:44:37;;;;;;;;;;;9.00;91.40;;;;;;5052015;28;19955;-63
2022/03/22 06:47:03;;;;;;;;;;;9.10;91.50;;;;;;5051785;28;20020;-63
2022/03/22 06:49:29;;;;;;;;;;;9.10;91.40;;;;;;5053146;28;19909;-60
2022/03/22 06:51:54;;;;;;;;;;;9.10;91.20;;;;;;5052296;28;19913;-62
2022/03/22 06:54:21;;;;;;;;;;;9.10;91.20;;;;;;5051948;28;20308;-63
2022/03/22 06:56:47;;;;;;;;;;;9.20;90.90;;;;;;5052193;28;20006;-61
2022/03/22 06:59:12;;;;;;;;;;;9.10;91.20;;;;;;5051107;28;19983;-61
2022/03/22 07:01:38;;;;;;;;;;;9.10;90.90;;;;;;5049565;28;19950;-62
2022/03/22 07:04:04;;;;;;;;;;;9.20;91.00;;;;;;5051406;28;19916;-64
2022/03/22 07:06:29;;;;;;;;;;;9.30;90.80;;;;;;5052062;28;19920;-70
2022/03/22 07:08:55;;;;;;;;;;;9.30;90.90;;;;;;5051981;28;20370;-70
2022/03/22 07:14:04;;;;;;;;;;;9.40;91.10;;;;;;5051467;28;19955;-66
2022/03/22 07:16:30;;;;;;;;;;;9.40;90.80;;;;;;5052686;28;19971;-65
2022/03/22 07:18:55;;;;;;;;;;;9.50;90.60;;;;;;5050967;28;19920;-66
2022/03/22 07:21:21;;;;;;;;;;;9.50;90.50;;;;;;5046942;28;19921;-63
2022/03/22 07:23:46;;;;;;;;;;;9.60;90.60;;;;;;5039820;28;20408;-65
2022/03/22 07:26:12;;;;;;;;;;;9.50;90.20;;;;;;5051194;28;19966;-64
2022/03/22 07:28:37;;;;;;;;;;;9.60;90.40;;;;;;5050635;28;19938;-65
2022/03/22 07:31:03;;;;;;;;;;;9.60;90.40;;;;;;5051274;28;19936;-65
2022/03/22 07:33:29;;;;;;;;;;;9.70;90.50;;;;;;5051261;28;19940;-64
2022/03/22 07:35:54;;;;;;;;;;;9.60;90.10;;;;;;5051321;28;20282;-66
2022/03/22 07:38:20;;;;;;;;;;;9.70;90.60;;;;;;5050460;28;19913;-64
2022/03/22 07:40:45;;;;;;;;;;;9.70;89.50;;;;;;5048913;28;19913;-65
2022/03/22 07:43:11;;;;;;;;;;;9.60;90.20;;;;;;5050532;28;19920;-66
2022/03/22 07:45:37;;;;;;;;;;;9.80;90.20;;;;;;5050884;28;19912;-64
2022/03/22 07:48:03;;;;;;;;;;;9.80;90.00;;;;;;5049231;28;19923;-67
2022/03/22 07:53:13;;;;;;;;;;;9.90;89.60;;;;;;5050893;28;20051;-64
2022/03/22 07:55:39;;;;;;;;;;;10.00;89.00;;;;;;5051663;28;19959;-66
2022/03/22 07:58:05;;;;;;;;;;;9.90;89.20;;;;;;5050797;28;19924;-66
2022/03/22 08:00:31;;;;;;;;;;;10.00;88.90;;;;;;5050841;28;19912;-64
2022/03/22 08:02:58;;;;;;;;;;;10.00;89.10;;;;;;5050491;28;19917;-67
2022/03/22 08:05:24;;;;;;;;;;;10.10;89.00;;;;;;5050737;28;19921;-66
2022/03/22 08:07:50;;;;;;;;;;;10.20;88.90;;;;;;5051497;28;19962;-65
2022/03/22 08:10:16;;;;;;;;;;;10.30;87.90;;;;;;5050582;28;19944;-67
2022/03/22 08:12:41;;;;;;;;;;;10.30;86.10;;;;;;5050242;28;20369;-66
2022/03/22 08:15:11;;;;;;;;;;;10.30;86.60;;;;;;5051002;28;19956;-65
2022/03/22 08:17:37;;;;;;;;;;;10.40;85.40;;;;;;5050497;28;19996;-66
2022/03/22 08:20:04;;;;;;;;;;;10.40;84.20;;;;;;5050800;28;19920;-65
2022/03/22 08:22:29;;;;;;;;;;;10.40;85.20;;;;;;5051373;28;19943;-64
2022/03/22 08:24:55;;;;;;;;;;;10.50;85.00;;;;;;5050699;28;19912;-66
2022/03/22 08:27:20;;;;;;;;;;;10.60;83.90;;;;;;5050507;28;19981;-66
2022/03/22 08:29:46;;;;;;;;;;;10.70;85.00;;;;;;5050482;28;19976;-66
2022/03/22 08:32:12;;;;;;;;;;;10.80;84.30;;;;;;5050401;28;19924;-65
2022/03/22 08:34:38;;;;;;;;;;;10.90;82.50;;;;;;5052044;28;20003;-66
2022/03/22 08:37:04;;;;;;;;;;;10.90;81.10;;;;;;5050315;28;19917;-65
2022/03/22 08:39:29;;;;;;;;;;;10.90;81.90;;;;;;5050072;28;19920;-64
2022/03/22 08:41:55;;;;;;;;;;;10.90;82.20;;;;;;5050070;28;19928;-65
2022/03/22 08:44:20;;;;;;;;;;;11.00;78.00;;;;;;5050494;28;20002;-65
2022/03/22 08:46:46;;;;;;;;;;;11.10;77.30;;;;;;5051079;28;19909;-65
2022/03/22 08:49:12;;;;;;;;;;;11.10;76.70;;;;;;5050249;28;19919;-66
2022/03/22 08:51:37;;;;;;;;;;;11.20;78.30;;;;;;5050340;28;19917;-64
2022/03/22 08:54:05;;;;;;;;;;;11.20;73.50;;;;;;5050286;28;19924;-65
2022/03/22 08:56:31;;;;;;;;;;;11.40;75.60;;;;;;5049493;28;20329;-66
2022/03/22 08:58:57;;;;;;;;;;;11.50;75.50;;;;;;5050469;28;19908;-65
2022/03/22 09:01:27;;;;;;;;;;;11.50;74.70;;;;;;5050692;28;20016;-65
2022/03/22 09:06:40;;;;;;;;;;;11.70;73.70;;;;;;5049970;28;19919;-65
2022/03/22 09:09:06;;;;;;;;;;;11.80;67.90;;;;;;5049465;28;19917;-63
2022/03/22 09:11:33;;;;;;;;;;;11.80;65.80;;;;;;5050262;28;19928;-65
2022/03/22 09:13:59;;;;;;;;;;;11.90;65.80;;;;;;5050397;28;19920;-65
2022/03/22 09:16:26;;;;;;;;;;;11.90;65.50;;;;;;5050958;28;19916;-64
2022/03/22 09:18:52;;;;;;;;;;;12.00;65.70;;;;;;5050045;28;19913;-65
2022/03/22 09:21:17;;;;;;;;;;;12.00;65.10;;;;;;5049789;28;19928;-65
2022/03/22 09:23:44;;;;;;;;;;;12.00;59.40;;;;;;5049339;28;19921;-64
2022/03/22 09:26:10;;;;;;;;;;;12.10;62.20;;;;;;5050567;28;19917;-65
2022/03/22 09:28:37;;;;;;;;;;;12.20;61.60;;;;;;5050500;28;19944;-65
2022/03/22 09:31:02;;;;;;;;;;;12.30;60.80;;;;;;5049640;28;19948;-65
2022/03/22 09:33:28;;;;;;;;;;;12.40;59.60;;;;;;5049645;28;20358;-63
2022/03/22 09:35:57;;;;;;;;;;;12.50;57.20;;;;;;5049575;28;19913;-63
2022/03/22 09:38:23;;;;;;;;;;;12.50;56.90;;;;;;5049380;28;20189;-66
2022/03/22 09:40:50;;;;;;;;;;;12.50;59.20;;;;;;5049573;28;19913;-65
2022/03/22 09:43:16;;;;;;;;;;;12.60;56.90;;;;;;5049915;28;20003;-65
2022/03/22 09:45:42;;;;;;;;;;;12.60;55.00;;;;;;5049686;28;19916;-65
2022/03/22 09:48:08;;;;;;;;;;;12.70;57.50;;;;;;5049787;28;19913;-65
2022/03/22 09:53:18;;;;;;;;;;;12.90;59.70;;;;;;5034313;28;19997;-67
2022/03/22 09:55:45;;;;;;;;;;;12.90;57.40;;;;;;5045964;28;19956;-66
2022/03/22 09:58:10;;;;;;;;;;;12.90;56.50;;;;;;5049562;28;19952;-66
2022/03/22 10:00:36;;;;;;;;;;;13.00;59.90;;;;;;5049530;28;20580;-66
2022/03/22 10:03:02;;;;;;;;;;;13.00;57.90;;;;;;5053321;28;19924;-66
2022/03/22 10:05:29;;;;;;;;;;;13.10;59.90;;;;;;5053200;28;19984;-66
2022/03/22 10:08:04;;;;;;;;;;;13.30;56.30;;;;;;5053267;28;19991;-66
2022/03/22 10:10:29;;;;;;;;;;;13.20;55.80;;;;;;5052308;28;19970;-67
2022/03/22 10:12:55;;;;;;;;;;;13.30;55.70;;;;;;5052884;28;20387;-66
2022/03/22 10:15:27;;;;;;;;;;;13.30;55.60;;;;;;5052732;28;19913;-64
2022/03/22 10:17:59;;;;;;;;;;;13.40;54.40;;;;;;5052725;28;19995;-67
2022/03/22 10:20:25;;;;;;;;;;;13.50;56.30;;;;;;5052919;28;19955;-67
2022/03/22 10:22:58;;;;;;;;;;;13.50;56.10;;;;;;5052769;28;19959;-65
2022/03/22 10:25:24;;;;;;;;;;;13.70;53.60;;;;;;5052552;28;20266;-66
2022/03/22 10:27:53;;;;;;;;;;;13.70;55.60;;;;;;5053131;28;19913;-67
2022/03/22 10:30:19;;;;;;;;;;;13.70;57.60;;;;;;5052452;28;19928;-66
2022/03/22 10:32:50;;;;;;;;;;;13.80;53.70;;;;;;5052719;28;19913;-63
2022/03/22 10:35:17;;;;;;;;;;;13.80;53.70;;;;;;5036534;28;19919;-63
2022/03/22 10:37:44;;;;;;;;;;;13.90;55.10;;;;;;5053086;28;19919;-65
2022/03/22 10:40:29;;;;;;;;;;;13.90;53.90;;;;;;5052629;28;19967;-66
2022/03/22 10:43:00;;;;;;;;;;;13.80;53.50;;;;;;5052248;28;20378;-66
2022/03/22 10:45:27;;;;;;;;;;;13.90;53.20;;;;;;5052418;28;20089;-66
2022/03/22 10:47:53;;;;;;;;;;;14.00;54.90;;;;;;5052217;28;19935;-66
2022/03/22 10:50:19;;;;;;;;;;;14.10;53.90;;;;;;5052127;28;20437;-63
2022/03/22 10:52:48;;;;;;;;;;;14.10;54.10;;;;;;5048290;28;20359;-65
2022/03/22 10:55:19;;;;;;;;;;;14.10;51.90;;;;;;5052370;28;19913;-66
2022/03/22 10:57:49;;;;;;;;;;;14.10;53.90;;;;;;5050648;28;19927;-66
2022/03/22 11:00:15;;;;;;;;;;;14.30;52.50;;;;;;5046305;28;19967;-65
2022/03/22 11:02:41;;;;;;;;;;;14.30;53.40;;;;;;5051745;28;20529;-67
2022/03/22 11:05:07;;;;;;;;;;;14.30;52.50;;;;;;5051867;28;19955;-66
2022/03/22 11:07:34;;;;;;;;;;;14.40;51.10;;;;;;5052903;28;19935;-66
2022/03/22 11:10:00;;;;;;;;;;;14.40;54.70;;;;;;5051678;28;19920;-66
2022/03/22 11:12:27;;;;;;;;;;;14.40;49.50;;;;;;5050911;28;19920;-64
2022/03/22 11:14:57;;;;;;;;;;;14.50;51.30;;;;;;5051567;28;19912;-67
2022/03/22 11:17:24;;;;;;;;;;;14.50;54.10;;;;;;5051740;28;19913;-66
2022/03/22 11:19:49;;;;;;;;;;;14.40;52.70;;;;;;5051931;28;20008;-67
2022/03/22 11:22:18;;;;;;;;;;;14.50;49.90;;;;;;5052122;28;20011;-65
2022/03/22 11:24:44;;;;;;;;;;;14.60;51.80;;;;;;5051333;28;19960;-62
2022/03/22 11:27:09;;;;;;;;;;;14.70;51.40;;;;;;5051799;28;19959;-66
2022/03/22 11:29:37;;;;;;;;;;;14.70;51.30;;;;;;5051906;28;19913;-67
2022/03/22 11:34:49;;;;;;;;;;;14.90;51.80;;;;;;5047543;28;19919;-68
2022/03/22 11:37:27;;;;;;;;;;;14.90;50.70;;;;;;5052153;28;19917;-67
2022/03/22 11:42:37;;;;;;;;;;;15.10;50.40;;;;;;5051132;28;20076;-66
2022/03/22 11:45:07;;;;;;;;;;;15.10;49.40;;;;;;5050883;28;20378;-66
2022/03/22 11:47:40;;;;;;;;;;;15.10;50.30;;;;;;5047562;28;20396;-66
2022/03/22 11:50:18;;;;;;;;;;;15.10;50.40;;;;;;5044600;28;19913;-67
2022/03/22 11:52:44;;;;;;;;;;;15.10;48.20;;;;;;5048995;28;19923;-67
2022/03/22 11:55:10;;;;;;;;;;;15.10;50.30;;;;;;5048404;28;19925;-67
2022/03/22 11:57:41;;;;;;;;;;;15.00;47.60;;;;;;5048375;28;19925;-66
2022/03/22 12:00:07;;;;;;;;;;;15.20;48.80;;;;;;5048262;28;19919;-67
2022/03/22 12:02:36;;;;;;;;;;;15.30;48.00;;;;;;5047317;28;19939;-67
2022/03/22 12:05:03;;;;;;;;;;;15.40;51.50;;;;;;5044325;28;19924;-69
2022/03/22 12:07:31;;;;;;;;;;;15.40;50.30;;;;;;5050102;28;19951;-67
2022/03/22 12:10:22;;;;;;;;;;;15.40;51.20;;;;;;5045628;28;20004;-66
2022/03/22 12:12:49;;;;;;;;;;;15.30;51.50;;;;;;5043890;28;19924;-66
2022/03/22 12:15:16;;;;;;;;;;;15.20;51.70;;;;;;5047957;28;19913;-66
2022/03/22 12:17:42;;;;;;;;;;;15.30;51.60;;;;;;5047760;28;19921;-67
2022/03/22 12:20:11;;;;;;;;;;;15.40;50.40;;;;;;5047992;28;19948;-67
2022/03/22 12:22:46;;;;;;;;;;;15.30;52.30;;;;;;5049111;28;19913;-67
2022/03/22 12:25:13;;;;;;;;;;;15.40;52.40;;;;;;5047330;28;19939;-64
2022/03/22 12:27:59;;;;;;;;;;;15.40;52.00;;;;;;5047862;28;20390;-64
2022/03/22 12:30:25;;;;;;;;;;;15.40;52.00;;;;;;5047165;28;19966;-65
2022/03/22 12:32:52;;;;;;;;;;;15.40;52.20;;;;;;5046881;28;20026;-64
2022/03/22 12:35:17;;;;;;;;;;;15.40;53.60;;;;;;5047119;28;19998;-66
2022/03/22 12:37:43;;;;;;;;;;;15.50;52.30;;;;;;5048437;28;20386;-64
2022/03/22 12:40:09;;;;;;;;;;;15.60;52.50;;;;;;5047007;28;19920;-66
2022/03/22 12:42:34;;;;;;;;;;;15.70;52.80;;;;;;5047373;28;20386;-66
2022/03/22 12:45:00;;;;;;;;;;;15.70;52.80;;;;;;5046809;28;19944;-67
2022/03/22 12:47:25;;;;;;;;;;;15.70;53.00;;;;;;5046813;28;20385;-67
2022/03/22 12:49:51;;;;;;;;;;;15.70;53.40;;;;;;5047853;28;19956;-66
2022/03/22 12:52:16;;;;;;;;;;;15.80;52.10;;;;;;5046436;28;19925;-65
2022/03/22 12:54:42;;;;;;;;;;;15.90;53.00;;;;;;5047627;28;19912;-65
2022/03/22 12:57:12;;;;;;;;;;;15.90;51.90;;;;;;5045842;28;19929;-65
2022/03/22 12:59:38;;;;;;;;;;;15.80;51.90;;;;;;5047495;28;19966;-67
2022/03/22 13:02:07;;;;;;;;;;;15.80;52.60;;;;;;5047088;28;19971;-67
2022/03/22 13:04:46;;;;;;;;;;;15.80;51.80;;;;;;5047554;28;19981;-65
2022/03/22 13:07:19;;;;;;;;;;;15.70;50.80;;;;;;5046624;28;19959;-67
2022/03/22 13:12:33;;;;;;;;;;;15.90;52.90;;;;;;5046397;28;19990;-67
2022/03/22 13:15:07;;;;;;;;;;;16.00;51.10;;;;;;5043062;28;20392;-68
2022/03/22 13:17:43;;;;;;;;;;;16.00;51.40;;;;;;5044704;28;19917;-67
2022/03/22 13:20:15;;;;;;;;;;;16.10;51.00;;;;;;5045189;28;19963;-68
2022/03/22 13:22:59;;;;;;;;;;;16.00;51.80;;;;;;5047591;28;20353;-67
2022/03/22 13:25:24;;;;;;;;;;;16.10;51.90;;;;;;5048250;28;20381;-67
2022/03/22 13:27:56;;;;;;;;;;;16.20;52.40;;;;;;5046407;28;19916;-68
2022/03/22 13:30:21;;;;;;;;;;;16.20;52.40;;;;;;5046660;28;19966;-67
2022/03/22 13:32:47;;;;;;;;;;;16.20;50.90;;;;;;5047191;28;19943;-67
2022/03/22 13:35:13;;;;;;;;;;;16.40;52.30;;;;;;5047227;28;21252;-64
2022/03/22 13:37:51;;;;;;;;;;;16.50;51.60;;;;;;5050685;28;19916;-66
2022/03/22 13:40:18;;;;;;;;;;;16.60;52.70;;;;;;5051382;28;19917;-66
2022/03/22 13:42:53;;;;;;;;;;;16.50;51.20;;;;;;5050753;28;20413;-67
2022/03/22 13:45:21;;;;;;;;;;;16.50;52.30;;;;;;5049928;28;19924;-64
2022/03/22 13:47:48;;;;;;;;;;;16.60;52.10;;;;;;5052725;28;19913;-66
2022/03/22 13:50:14;;;;;;;;;;;16.60;51.70;;;;;;5050928;28;20822;-67
2022/03/22 13:52:41;;;;;;;;;;;16.50;51.50;;;;;;5051497;28;19925;-67
2022/03/22 13:55:20;;;;;;;;;;;16.40;51.50;;;;;;5050301;28;19916;-68
2022/03/22 13:57:46;;;;;;;;;;;16.40;51.40;;;;;;5049656;28;20341;-65
2022/03/22 14:00:12;;;;;;;;;;;16.40;51.10;;;;;;5049621;28;19913;-67
2022/03/22 14:02:38;;;;;;;;;;;16.30;51.30;;;;;;5050626;28;20227;-69
2022/03/22 14:05:04;;;;;;;;;;;16.40;51.10;;;;;;5050148;28;19959;-67
2022/03/22 14:07:31;;;;;;;;;;;16.40;52.00;;;;;;5049546;28;20206;-69
2022/03/22 14:09:57;;;;;;;;;;;16.60;51.40;;;;;;5050357;28;19917;-68
2022/03/22 14:12:22;;;;;;;;;;;16.60;51.30;;;;;;5049634;28;19931;-69
2022/03/22 14:14:48;;;;;;;;;;;16.70;51.30;;;;;;5049223;28;19917;-68
2022/03/22 14:17:14;;;;;;;;;;;16.80;50.90;;;;;;5050146;28;20393;-68
2022/03/22 14:19:39;;;;;;;;;;;16.80;49.90;;;;;;5050935;28;19971;-68
2022/03/22 14:22:05;;;;;;;;;;;16.80;50.00;;;;;;5049461;28;19948;-67
2022/03/22 14:24:31;;;;;;;;;;;16.80;50.10;;;;;;5049544;28;19920;-66
2022/03/22 14:26:57;;;;;;;;;;;16.80;49.70;;;;;;5050003;28;19920;-68
2022/03/22 14:29:22;;;;;;;;;;;16.80;49.40;;;;;;5048896;28;19916;-68
2022/03/22 14:31:48;;;;;;;;;;;16.70;49.00;;;;;;5051971;28;19920;-67
2022/03/22 14:35:46;;;;;;;;;;;16.60;49.40;;;;;;5048102;28;20313;-67
2022/03/22 14:36:59;;;;;;;;;;;16.70;49.60;;;;;;5049866;28;19917;-67
2022/03/22 14:39:25;;;;;;;;;;;16.80;50.50;;;;;;5049575;28;20445;-66
2022/03/22 14:41:50;;;;;;;;;;;16.90;49.50;;;;;;5050645;28;19917;-69
2022/03/22 14:44:16;;;;;;;;;;;16.90;48.50;;;;;;5049747;28;20389;-69
2022/03/22 14:46:42;;;;;;;;;;;17.00;48.30;;;;;;5050478;28;19920;-69
2022/03/22 14:49:07;;;;;;;;;;;17.00;49.20;;;;;;5048401;28;19966;-68
2022/03/22 14:54:17;;;;;;;;;;;17.10;48.00;;;;;;5048915;28;20544;-69
2022/03/22 14:59:27;;;;;;;;;;;17.00;48.50;;;;;;5049314;28;20327;-66
2022/03/22 15:01:53;;;;;;;;;;;17.00;48.70;;;;;;5050555;28;20601;-67